Delta Virtual Airport Information Service

San Francisco International Airport

ICAO: KSFO Country: United States
Latitude: 37.619 Longitude: -122.374
Latest Arrival : UAL361 (KLAS-KSFO) Latest Departure : UAL194 (1) (KSFO-EDDM)


WX CaptureLIVE
Data provided by noaa.gov | Fetched at 00:40:26

METAR : KSFO 250456Z 29009KT 10SM CLR 14/09 A2992 RMK AO2 SLP130 T01440094

TAF : KSFO 250245Z 2503/2606 29017KT P6SM FEW200 FM250400 28009KT P6SM SKC FM251000 VRB04KT P6SM FEW200 FM252200 29010KT P6SM FEW200 FM260400 28004KT P6SM SKC


Runway Data for KSFO
Data provided by openaviationdata.com

Runway ID Mag Var Hdg Length Elevation Surface ILS Freq ILS Id ILS Slope
01L 15 12° 7506 ft 13 ft Asphalt -- -- --
01R 15 12° 8654 ft 13 ft Asphalt -- -- --
10L 15 102° 11861 ft 13 ft Asphalt -- -- --
10R 15 102° 10594 ft 13 ft Asphalt -- -- --
19L 15 192° 8654 ft 13 ft Asphalt 108.9 ISIA 2
19R 15 192° 7506 ft 13 ft Asphalt -- -- --
28L 15 282° 10594 ft 13 ft Asphalt 109.55 ISFO 3
28R 15 282° 11861 ft 13 ft Asphalt 111.7 IGWQ 3

San Francisco International Airport, United States
Use only for reference purposes



Not for navigational purposes.